< < Back
Terminal Aerodrome Forecast


Current Version              Previous Versions:   1  2  3  4  5  6  7  8  9  

Terminal Aerodrome Forecast

695
FTUS42 KGSP 280536
TAFCLT
TAF
KCLT 280536Z 2806/2906 16005KT P6SM FEW250
     FM281400 12005KT P6SM FEW060 SCT250
     FM290100 08005KT P6SM VCSH SCT050 BKN120=



Latest METAR

089
SAUS70 KWBC 282000 RRJ
MTRCLT
METAR KCLT 281952Z VRB03KT 10SM FEW050 SCT160 BKN250 29/13 A3014 RMK AO2
SLP197 T02890133


USA.gov is the U.S. government's official web portal to all federal, state and local government web resources and services.